sensor_id;sensor_type;location;lat;lon;timestamp;P1;durP1;ratioP1;P2;durP2;ratioP2
7485;SDS011;3784;54.098;9.998;2022-07-29T00:00:58;4.43;;;2.47;;
7485;SDS011;3784;54.098;9.998;2022-07-29T00:03:24;3.73;;;2.27;;
7485;SDS011;3784;54.098;9.998;2022-07-29T00:05:51;4.93;;;2.50;;
7485;SDS011;3784;54.098;9.998;2022-07-29T00:08:19;3.47;;;2.43;;
7485;SDS011;3784;54.098;9.998;2022-07-29T00:10:46;3.80;;;2.50;;
7485;SDS011;3784;54.098;9.998;2022-07-29T00:13:12;4.87;;;2.60;;
7485;SDS011;3784;54.098;9.998;2022-07-29T00:15:39;6.30;;;2.70;;
7485;SDS011;3784;54.098;9.998;2022-07-29T00:18:05;5.30;;;2.97;;
7485;SDS011;3784;54.098;9.998;2022-07-29T00:20:32;4.17;;;2.50;;
7485;SDS011;3784;54.098;9.998;2022-07-29T00:22:58;5.57;;;2.60;;
7485;SDS011;3784;54.098;9.998;2022-07-29T00:25:25;3.27;;;2.30;;
7485;SDS011;3784;54.098;9.998;2022-07-29T00:27:51;5.70;;;2.17;;
7485;SDS011;3784;54.098;9.998;2022-07-29T00:30:18;2.90;;;2.40;;
7485;SDS011;3784;54.098;9.998;2022-07-29T00:32:44;4.97;;;2.43;;
7485;SDS011;3784;54.098;9.998;2022-07-29T00:35:11;4.37;;;2.37;;
7485;SDS011;3784;54.098;9.998;2022-07-29T00:37:58;5.77;;;2.70;;
7485;SDS011;3784;54.098;9.998;2022-07-29T00:40:27;3.30;;;2.70;;
7485;SDS011;3784;54.098;9.998;2022-07-29T00:42:53;5.57;;;3.00;;
7485;SDS011;3784;54.098;9.998;2022-07-29T00:45:20;2.80;;;2.60;;
7485;SDS011;3784;54.098;9.998;2022-07-29T00:47:48;4.07;;;2.50;;
7485;SDS011;3784;54.098;9.998;2022-07-29T00:50:15;3.57;;;2.50;;
7485;SDS011;3784;54.098;9.998;2022-07-29T00:52:41;4.20;;;2.60;;
7485;SDS011;3784;54.098;9.998;2022-07-29T00:55:09;3.30;;;2.47;;
7485;SDS011;3784;54.098;9.998;2022-07-29T00:57:40;4.80;;;3.20;;
7485;SDS011;3784;54.098;9.998;2022-07-29T01:00:09;4.43;;;3.13;;
7485;SDS011;3784;54.098;9.998;2022-07-29T01:02:37;7.83;;;3.80;;
7485;SDS011;3784;54.098;9.998;2022-07-29T01:05:04;6.60;;;3.63;;
7485;SDS011;3784;54.098;9.998;2022-07-29T01:07:32;7.93;;;3.60;;
7485;SDS011;3784;54.098;9.998;2022-07-29T01:10:00;3.60;;;2.80;;
7485;SDS011;3784;54.098;9.998;2022-07-29T01:12:28;4.57;;;2.57;;
7485;SDS011;3784;54.098;9.998;2022-07-29T01:14:59;6.13;;;3.00;;
7485;SDS011;3784;54.098;9.998;2022-07-29T01:17:38;4.47;;;3.10;;
7485;SDS011;3784;54.098;9.998;2022-07-29T01:20:37;10.23;;;2.87;;
7485;SDS011;3784;54.098;9.998;2022-07-29T01:31:11;4.23;;;3.10;;
7485;SDS011;3784;54.098;9.998;2022-07-29T01:33:54;4.33;;;2.80;;
7485;SDS011;3784;54.098;9.998;2022-07-29T01:36:29;4.90;;;2.70;;
7485;SDS011;3784;54.098;9.998;2022-07-29T01:39:02;4.90;;;3.30;;
7485;SDS011;3784;54.098;9.998;2022-07-29T01:41:32;5.17;;;3.20;;
7485;SDS011;3784;54.098;9.998;2022-07-29T01:44:13;3.10;;;2.80;;
7485;SDS011;3784;54.098;9.998;2022-07-29T01:46:46;4.70;;;3.00;;
7485;SDS011;3784;54.098;9.998;2022-07-29T01:49:26;4.40;;;2.87;;
7485;SDS011;3784;54.098;9.998;2022-07-29T01:51:56;6.23;;;3.47;;
7485;SDS011;3784;54.098;9.998;2022-07-29T01:54:26;6.10;;;3.60;;
7485;SDS011;3784;54.098;9.998;2022-07-29T01:56:55;6.87;;;3.57;;
7485;SDS011;3784;54.098;9.998;2022-07-29T01:59:23;5.63;;;4.03;;
7485;SDS011;3784;54.098;9.998;2022-07-29T02:01:50;6.53;;;3.90;;
7485;SDS011;3784;54.098;9.998;2022-07-29T02:04:20;4.27;;;3.50;;
7485;SDS011;3784;54.098;9.998;2022-07-29T02:06:56;4.93;;;3.30;;
7485;SDS011;3784;54.098;9.998;2022-07-29T02:09:24;5.70;;;3.60;;
7485;SDS011;3784;54.098;9.998;2022-07-29T02:11:52;5.23;;;3.63;;
7485;SDS011;3784;54.098;9.998;2022-07-29T02:14:20;7.30;;;3.83;;
7485;SDS011;3784;54.098;9.998;2022-07-29T02:16:48;4.13;;;3.70;;
7485;SDS011;3784;54.098;9.998;2022-07-29T02:19:19;6.40;;;3.83;;
7485;SDS011;3784;54.098;9.998;2022-07-29T02:21:47;6.20;;;4.13;;
7485;SDS011;3784;54.098;9.998;2022-07-29T02:24:14;7.43;;;3.80;;
7485;SDS011;3784;54.098;9.998;2022-07-29T02:26:44;4.43;;;4.00;;
7485;SDS011;3784;54.098;9.998;2022-07-29T02:29:10;5.60;;;3.00;;
7485;SDS011;3784;54.098;9.998;2022-07-29T02:31:38;5.67;;;3.90;;
7485;SDS011;3784;54.098;9.998;2022-07-29T02:34:06;4.87;;;3.73;;
7485;SDS011;3784;54.098;9.998;2022-07-29T02:36:33;7.93;;;4.30;;
7485;SDS011;3784;54.098;9.998;2022-07-29T02:39:01;6.97;;;4.00;;
7485;SDS011;3784;54.098;9.998;2022-07-29T02:41:31;6.70;;;4.03;;
7485;SDS011;3784;54.098;9.998;2022-07-29T02:44:03;4.17;;;3.53;;
7485;SDS011;3784;54.098;9.998;2022-07-29T02:46:33;5.63;;;4.17;;
7485;SDS011;3784;54.098;9.998;2022-07-29T02:51:47;4.23;;;3.83;;
7485;SDS011;3784;54.098;9.998;2022-07-29T02:54:31;4.93;;;4.37;;
7485;SDS011;3784;54.098;9.998;2022-07-29T02:57:04;5.37;;;3.63;;
7485;SDS011;3784;54.098;9.998;2022-07-29T02:59:36;4.93;;;4.10;;
7485;SDS011;3784;54.098;9.998;2022-07-29T03:02:03;5.30;;;3.53;;
7485;SDS011;3784;54.098;9.998;2022-07-29T03:04:31;5.30;;;3.60;;
7485;SDS011;3784;54.098;9.998;2022-07-29T03:06:58;3.83;;;3.40;;
7485;SDS011;3784;54.098;9.998;2022-07-29T03:09:26;8.67;;;4.37;;
7485;SDS011;3784;54.098;9.998;2022-07-29T03:11:54;5.40;;;4.10;;
7485;SDS011;3784;54.098;9.998;2022-07-29T03:14:21;5.60;;;3.90;;
7485;SDS011;3784;54.098;9.998;2022-07-29T03:16:49;5.07;;;3.87;;
7485;SDS011;3784;54.098;9.998;2022-07-29T03:19:16;8.60;;;3.87;;
7485;SDS011;3784;54.098;9.998;2022-07-29T03:21:43;4.90;;;3.43;;
7485;SDS011;3784;54.098;9.998;2022-07-29T03:24:22;4.43;;;3.60;;
7485;SDS011;3784;54.098;9.998;2022-07-29T03:26:54;6.60;;;3.90;;
7485;SDS011;3784;54.098;9.998;2022-07-29T03:29:22;4.83;;;3.53;;
7485;SDS011;3784;54.098;9.998;2022-07-29T03:31:49;4.07;;;3.30;;
7485;SDS011;3784;54.098;9.998;2022-07-29T03:34:16;4.97;;;3.97;;
7485;SDS011;3784;54.098;9.998;2022-07-29T03:36:43;4.33;;;3.50;;
7485;SDS011;3784;54.098;9.998;2022-07-29T03:39:10;4.93;;;3.37;;
7485;SDS011;3784;54.098;9.998;2022-07-29T03:41:38;9.83;;;3.97;;
7485;SDS011;3784;54.098;9.998;2022-07-29T03:44:05;4.47;;;3.70;;
7485;SDS011;3784;54.098;9.998;2022-07-29T03:46:33;5.40;;;4.07;;
7485;SDS011;3784;54.098;9.998;2022-07-29T03:49:00;4.03;;;3.53;;
7485;SDS011;3784;54.098;9.998;2022-07-29T03:51:27;3.67;;;3.37;;
7485;SDS011;3784;54.098;9.998;2022-07-29T03:53:59;6.33;;;3.97;;
7485;SDS011;3784;54.098;9.998;2022-07-29T03:56:32;5.03;;;3.83;;
7485;SDS011;3784;54.098;9.998;2022-07-29T03:58:59;5.53;;;3.50;;
7485;SDS011;3784;54.098;9.998;2022-07-29T04:01:28;7.67;;;3.73;;
7485;SDS011;3784;54.098;9.998;2022-07-29T04:03:55;4.27;;;3.80;;
7485;SDS011;3784;54.098;9.998;2022-07-29T04:06:22;4.13;;;3.70;;
7485;SDS011;3784;54.098;9.998;2022-07-29T04:08:49;5.90;;;3.90;;
7485;SDS011;3784;54.098;9.998;2022-07-29T04:11:16;4.33;;;3.77;;
7485;SDS011;3784;54.098;9.998;2022-07-29T04:13:42;4.37;;;3.50;;
7485;SDS011;3784;54.098;9.998;2022-07-29T04:16:08;5.40;;;3.80;;
7485;SDS011;3784;54.098;9.998;2022-07-29T04:18:35;4.10;;;3.70;;
7485;SDS011;3784;54.098;9.998;2022-07-29T04:21:02;4.70;;;3.90;;
7485;SDS011;3784;54.098;9.998;2022-07-29T04:23:30;7.67;;;3.63;;
7485;SDS011;3784;54.098;9.998;2022-07-29T04:25:59;6.77;;;3.70;;
7485;SDS011;3784;54.098;9.998;2022-07-29T04:28:27;6.07;;;3.97;;
7485;SDS011;3784;54.098;9.998;2022-07-29T04:30:54;4.13;;;3.57;;
7485;SDS011;3784;54.098;9.998;2022-07-29T04:33:20;7.27;;;3.63;;
7485;SDS011;3784;54.098;9.998;2022-07-29T04:35:50;5.27;;;3.70;;
7485;SDS011;3784;54.098;9.998;2022-07-29T04:38:17;4.07;;;3.30;;
7485;SDS011;3784;54.098;9.998;2022-07-29T04:40:44;6.90;;;3.63;;
7485;SDS011;3784;54.098;9.998;2022-07-29T04:43:12;6.20;;;3.53;;
7485;SDS011;3784;54.098;9.998;2022-07-29T04:45:40;5.97;;;3.70;;
7485;SDS011;3784;54.098;9.998;2022-07-29T04:48:07;6.00;;;3.17;;
7485;SDS011;3784;54.098;9.998;2022-07-29T04:50:33;7.47;;;3.70;;
7485;SDS011;3784;54.098;9.998;2022-07-29T04:53:00;4.83;;;3.80;;
7485;SDS011;3784;54.098;9.998;2022-07-29T04:55:26;7.33;;;3.63;;
7485;SDS011;3784;54.098;9.998;2022-07-29T04:57:53;7.90;;;3.70;;
7485;SDS011;3784;54.098;9.998;2022-07-29T05:00:20;7.93;;;3.70;;
7485;SDS011;3784;54.098;9.998;2022-07-29T05:02:57;4.10;;;3.50;;
7485;SDS011;3784;54.098;9.998;2022-07-29T05:05:23;7.80;;;3.90;;
7485;SDS011;3784;54.098;9.998;2022-07-29T05:07:50;6.80;;;3.97;;
7485;SDS011;3784;54.098;9.998;2022-07-29T05:10:16;7.27;;;3.87;;
7485;SDS011;3784;54.098;9.998;2022-07-29T05:12:43;4.87;;;3.33;;
7485;SDS011;3784;54.098;9.998;2022-07-29T05:15:09;4.87;;;3.60;;
7485;SDS011;3784;54.098;9.998;2022-07-29T05:17:36;4.80;;;3.43;;
7485;SDS011;3784;54.098;9.998;2022-07-29T05:20:03;4.77;;;2.90;;
7485;SDS011;3784;54.098;9.998;2022-07-29T05:22:31;5.53;;;3.20;;
7485;SDS011;3784;54.098;9.998;2022-07-29T05:24:57;5.60;;;3.37;;
7485;SDS011;3784;54.098;9.998;2022-07-29T05:27:24;6.33;;;3.50;;
7485;SDS011;3784;54.098;9.998;2022-07-29T05:29:50;5.70;;;3.10;;
7485;SDS011;3784;54.098;9.998;2022-07-29T05:32:17;4.83;;;3.10;;
7485;SDS011;3784;54.098;9.998;2022-07-29T05:34:43;5.07;;;3.20;;
7485;SDS011;3784;54.098;9.998;2022-07-29T05:37:17;4.60;;;3.20;;
7485;SDS011;3784;54.098;9.998;2022-07-29T05:39:45;5.23;;;3.00;;
7485;SDS011;3784;54.098;9.998;2022-07-29T05:42:15;5.60;;;3.30;;
7485;SDS011;3784;54.098;9.998;2022-07-29T05:44:42;5.23;;;3.10;;
7485;SDS011;3784;54.098;9.998;2022-07-29T05:47:08;4.47;;;3.47;;
7485;SDS011;3784;54.098;9.998;2022-07-29T05:49:35;5.47;;;3.10;;
7485;SDS011;3784;54.098;9.998;2022-07-29T05:52:01;4.13;;;2.80;;
7485;SDS011;3784;54.098;9.998;2022-07-29T05:54:28;3.73;;;2.90;;
7485;SDS011;3784;54.098;9.998;2022-07-29T05:56:54;3.13;;;2.80;;
7485;SDS011;3784;54.098;9.998;2022-07-29T05:59:21;5.00;;;3.20;;
7485;SDS011;3784;54.098;9.998;2022-07-29T06:01:53;4.87;;;3.10;;
7485;SDS011;3784;54.098;9.998;2022-07-29T06:04:20;4.87;;;3.10;;
7485;SDS011;3784;54.098;9.998;2022-07-29T06:06:46;4.90;;;3.27;;
7485;SDS011;3784;54.098;9.998;2022-07-29T06:09:13;4.83;;;3.03;;
7485;SDS011;3784;54.098;9.998;2022-07-29T06:11:40;5.03;;;3.50;;
7485;SDS011;3784;54.098;9.998;2022-07-29T06:14:06;4.47;;;3.37;;
7485;SDS011;3784;54.098;9.998;2022-07-29T06:16:33;6.57;;;3.03;;
7485;SDS011;3784;54.098;9.998;2022-07-29T06:18:59;5.40;;;3.27;;
7485;SDS011;3784;54.098;9.998;2022-07-29T06:21:26;5.10;;;2.97;;
7485;SDS011;3784;54.098;9.998;2022-07-29T06:23:52;7.53;;;3.80;;
7485;SDS011;3784;54.098;9.998;2022-07-29T06:26:19;6.90;;;3.60;;
7485;SDS011;3784;54.098;9.998;2022-07-29T06:28:56;4.57;;;3.00;;
7485;SDS011;3784;54.098;9.998;2022-07-29T06:31:23;4.17;;;3.20;;
7485;SDS011;3784;54.098;9.998;2022-07-29T06:33:49;5.97;;;3.50;;
7485;SDS011;3784;54.098;9.998;2022-07-29T06:36:19;5.23;;;3.33;;
7485;SDS011;3784;54.098;9.998;2022-07-29T06:38:48;5.93;;;3.30;;
7485;SDS011;3784;54.098;9.998;2022-07-29T06:41:17;6.87;;;2.90;;
7485;SDS011;3784;54.098;9.998;2022-07-29T06:43:44;4.73;;;3.23;;
7485;SDS011;3784;54.098;9.998;2022-07-29T06:46:19;5.50;;;3.30;;
7485;SDS011;3784;54.098;9.998;2022-07-29T06:48:47;6.20;;;3.00;;
7485;SDS011;3784;54.098;9.998;2022-07-29T06:51:14;5.37;;;3.20;;
7485;SDS011;3784;54.098;9.998;2022-07-29T06:53:48;4.10;;;2.77;;
7485;SDS011;3784;54.098;9.998;2022-07-29T06:56:27;5.07;;;3.37;;
7485;SDS011;3784;54.098;9.998;2022-07-29T06:58:54;4.37;;;2.57;;
7485;SDS011;3784;54.098;9.998;2022-07-29T07:01:21;5.73;;;2.70;;
7485;SDS011;3784;54.098;9.998;2022-07-29T07:03:47;4.43;;;2.70;;
7485;SDS011;3784;54.098;9.998;2022-07-29T07:06:14;3.83;;;2.70;;
7485;SDS011;3784;54.098;9.998;2022-07-29T07:08:41;5.47;;;2.63;;
7485;SDS011;3784;54.098;9.998;2022-07-29T07:11:08;5.77;;;2.77;;
7485;SDS011;3784;54.098;9.998;2022-07-29T07:13:34;8.57;;;2.70;;
7485;SDS011;3784;54.098;9.998;2022-07-29T07:16:02;8.10;;;2.77;;
7485;SDS011;3784;54.098;9.998;2022-07-29T07:18:29;5.27;;;2.30;;
7485;SDS011;3784;54.098;9.998;2022-07-29T07:20:56;5.53;;;2.87;;
7485;SDS011;3784;54.098;9.998;2022-07-29T07:23:24;3.87;;;2.50;;
7485;SDS011;3784;54.098;9.998;2022-07-29T07:25:51;4.90;;;2.60;;
7485;SDS011;3784;54.098;9.998;2022-07-29T07:28:18;5.97;;;2.60;;
7485;SDS011;3784;54.098;9.998;2022-07-29T07:30:50;3.57;;;2.60;;
7485;SDS011;3784;54.098;9.998;2022-07-29T07:33:17;3.67;;;2.40;;
7485;SDS011;3784;54.098;9.998;2022-07-29T07:35:43;5.83;;;2.53;;
7485;SDS011;3784;54.098;9.998;2022-07-29T07:38:10;5.93;;;2.50;;
7485;SDS011;3784;54.098;9.998;2022-07-29T07:40:36;4.93;;;2.60;;
7485;SDS011;3784;54.098;9.998;2022-07-29T07:43:03;3.80;;;2.50;;
7485;SDS011;3784;54.098;9.998;2022-07-29T07:45:30;6.80;;;2.70;;
7485;SDS011;3784;54.098;9.998;2022-07-29T07:47:58;6.43;;;2.27;;
7485;SDS011;3784;54.098;9.998;2022-07-29T07:50:25;6.63;;;2.77;;
7485;SDS011;3784;54.098;9.998;2022-07-29T07:52:53;4.67;;;2.80;;
7485;SDS011;3784;54.098;9.998;2022-07-29T07:55:21;4.13;;;2.60;;
7485;SDS011;3784;54.098;9.998;2022-07-29T07:57:47;4.47;;;2.50;;
7485;SDS011;3784;54.098;9.998;2022-07-29T08:00:14;4.97;;;2.23;;
7485;SDS011;3784;54.098;9.998;2022-07-29T08:02:42;3.50;;;2.70;;
7485;SDS011;3784;54.098;9.998;2022-07-29T08:05:09;5.43;;;2.70;;
7485;SDS011;3784;54.098;9.998;2022-07-29T08:07:38;5.67;;;2.03;;
7485;SDS011;3784;54.098;9.998;2022-07-29T08:10:05;3.37;;;2.47;;
7485;SDS011;3784;54.098;9.998;2022-07-29T08:12:32;6.43;;;2.50;;
7485;SDS011;3784;54.098;9.998;2022-07-29T08:14:58;7.00;;;2.77;;
7485;SDS011;3784;54.098;9.998;2022-07-29T08:17:25;4.53;;;2.30;;
7485;SDS011;3784;54.098;9.998;2022-07-29T08:19:52;6.83;;;2.70;;
7485;SDS011;3784;54.098;9.998;2022-07-29T08:22:19;4.77;;;2.20;;
7485;SDS011;3784;54.098;9.998;2022-07-29T08:24:45;6.57;;;2.50;;
7485;SDS011;3784;54.098;9.998;2022-07-29T08:27:20;4.73;;;2.50;;
7485;SDS011;3784;54.098;9.998;2022-07-29T08:30:06;3.57;;;2.40;;
7485;SDS011;3784;54.098;9.998;2022-07-29T08:32:33;4.53;;;2.70;;
7485;SDS011;3784;54.098;9.998;2022-07-29T08:35:19;5.50;;;2.23;;
7485;SDS011;3784;54.098;9.998;2022-07-29T08:37:46;4.13;;;2.07;;
7485;SDS011;3784;54.098;9.998;2022-07-29T08:40:13;4.13;;;2.43;;
7485;SDS011;3784;54.098;9.998;2022-07-29T08:42:40;6.80;;;2.47;;
7485;SDS011;3784;54.098;9.998;2022-07-29T08:45:07;4.83;;;2.67;;
7485;SDS011;3784;54.098;9.998;2022-07-29T08:47:34;2.63;;;2.00;;
7485;SDS011;3784;54.098;9.998;2022-07-29T08:50:05;7.03;;;2.40;;
7485;SDS011;3784;54.098;9.998;2022-07-29T08:52:33;3.90;;;2.40;;
7485;SDS011;3784;54.098;9.998;2022-07-29T08:55:03;5.60;;;2.30;;
7485;SDS011;3784;54.098;9.998;2022-07-29T08:57:31;5.17;;;2.23;;
7485;SDS011;3784;54.098;9.998;2022-07-29T09:00:00;3.80;;;2.20;;
7485;SDS011;3784;54.098;9.998;2022-07-29T09:02:39;4.57;;;2.37;;
7485;SDS011;3784;54.098;9.998;2022-07-29T09:05:06;4.10;;;2.63;;
7485;SDS011;3784;54.098;9.998;2022-07-29T09:07:33;3.77;;;2.33;;
7485;SDS011;3784;54.098;9.998;2022-07-29T09:10:00;6.80;;;2.47;;
7485;SDS011;3784;54.098;9.998;2022-07-29T09:12:28;4.77;;;2.40;;
7485;SDS011;3784;54.098;9.998;2022-07-29T09:14:59;4.87;;;2.50;;
7485;SDS011;3784;54.098;9.998;2022-07-29T09:17:39;6.70;;;2.13;;
7485;SDS011;3784;54.098;9.998;2022-07-29T09:20:11;3.33;;;2.20;;
7485;SDS011;3784;54.098;9.998;2022-07-29T09:22:39;6.30;;;2.40;;
7485;SDS011;3784;54.098;9.998;2022-07-29T09:25:07;3.40;;;2.37;;
7485;SDS011;3784;54.098;9.998;2022-07-29T09:27:34;5.47;;;2.00;;
7485;SDS011;3784;54.098;9.998;2022-07-29T09:30:03;4.57;;;2.03;;
7485;SDS011;3784;54.098;9.998;2022-07-29T09:32:32;5.73;;;2.30;;
7485;SDS011;3784;54.098;9.998;2022-07-29T09:35:18;3.93;;;2.13;;
7485;SDS011;3784;54.098;9.998;2022-07-29T09:37:46;3.53;;;2.00;;
7485;SDS011;3784;54.098;9.998;2022-07-29T09:40:14;5.60;;;1.90;;
7485;SDS011;3784;54.098;9.998;2022-07-29T09:42:42;5.43;;;2.00;;
7485;SDS011;3784;54.098;9.998;2022-07-29T09:45:10;5.77;;;2.20;;
7485;SDS011;3784;54.098;9.998;2022-07-29T09:47:41;6.53;;;2.37;;
7485;SDS011;3784;54.098;9.998;2022-07-29T09:50:13;3.40;;;2.10;;
7485;SDS011;3784;54.098;9.998;2022-07-29T09:52:46;5.50;;;1.63;;
7485;SDS011;3784;54.098;9.998;2022-07-29T09:55:14;2.70;;;2.00;;
7485;SDS011;3784;54.098;9.998;2022-07-29T09:57:45;3.17;;;1.83;;
7485;SDS011;3784;54.098;9.998;2022-07-29T10:00:13;7.53;;;2.57;;
7485;SDS011;3784;54.098;9.998;2022-07-29T10:02:45;2.77;;;2.10;;
7485;SDS011;3784;54.098;9.998;2022-07-29T10:05:20;3.90;;;2.07;;
7485;SDS011;3784;54.098;9.998;2022-07-29T10:07:52;2.53;;;1.87;;
7485;SDS011;3784;54.098;9.998;2022-07-29T10:10:24;4.67;;;1.87;;
7485;SDS011;3784;54.098;9.998;2022-07-29T10:12:56;4.57;;;2.10;;
7485;SDS011;3784;54.098;9.998;2022-07-29T10:15:32;6.10;;;2.13;;
7485;SDS011;3784;54.098;9.998;2022-07-29T10:18:03;4.30;;;1.87;;
7485;SDS011;3784;54.098;9.998;2022-07-29T10:20:30;5.07;;;2.20;;
7485;SDS011;3784;54.098;9.998;2022-07-29T10:22:57;3.97;;;2.03;;
7485;SDS011;3784;54.098;9.998;2022-07-29T10:25:24;3.73;;;2.10;;
7485;SDS011;3784;54.098;9.998;2022-07-29T10:27:51;3.27;;;2.13;;
7485;SDS011;3784;54.098;9.998;2022-07-29T10:30:19;6.03;;;2.03;;
7485;SDS011;3784;54.098;9.998;2022-07-29T10:32:53;4.67;;;2.10;;
7485;SDS011;3784;54.098;9.998;2022-07-29T10:44:28;3.90;;;2.07;;
7485;SDS011;3784;54.098;9.998;2022-07-29T10:46:55;4.33;;;2.30;;
7485;SDS011;3784;54.098;9.998;2022-07-29T10:49:24;4.77;;;1.97;;
7485;SDS011;3784;54.098;9.998;2022-07-29T10:52:05;5.77;;;2.40;;
7485;SDS011;3784;54.098;9.998;2022-07-29T10:59:40;4.93;;;1.90;;
7485;SDS011;3784;54.098;9.998;2022-07-29T11:07:37;5.90;;;2.00;;
7485;SDS011;3784;54.098;9.998;2022-07-29T11:15:08;6.63;;;2.10;;
7485;SDS011;3784;54.098;9.998;2022-07-29T11:23:22;3.33;;;1.90;;
7485;SDS011;3784;54.098;9.998;2022-07-29T11:28:56;4.10;;;1.90;;
7485;SDS011;3784;54.098;9.998;2022-07-29T11:31:43;6.70;;;2.13;;
7485;SDS011;3784;54.098;9.998;2022-07-29T11:34:19;4.97;;;2.33;;
7485;SDS011;3784;54.098;9.998;2022-07-29T11:39:33;4.57;;;2.10;;
7485;SDS011;3784;54.098;9.998;2022-07-29T11:45:17;5.90;;;2.20;;
7485;SDS011;3784;54.098;9.998;2022-07-29T11:48:07;3.90;;;2.13;;
7485;SDS011;3784;54.098;9.998;2022-07-29T11:50:56;3.27;;;1.80;;
7485;SDS011;3784;54.098;9.998;2022-07-29T11:53:23;3.00;;;2.17;;
7485;SDS011;3784;54.098;9.998;2022-07-29T11:55:54;2.13;;;1.60;;
7485;SDS011;3784;54.098;9.998;2022-07-29T11:58:23;5.43;;;1.90;;
7485;SDS011;3784;54.098;9.998;2022-07-29T12:01:12;3.90;;;1.87;;
7485;SDS011;3784;54.098;9.998;2022-07-29T12:03:40;5.30;;;2.50;;
7485;SDS011;3784;54.098;9.998;2022-07-29T12:06:13;4.13;;;1.97;;
7485;SDS011;3784;54.098;9.998;2022-07-29T12:08:43;2.40;;;2.20;;
7485;SDS011;3784;54.098;9.998;2022-07-29T12:11:17;3.60;;;2.03;;
7485;SDS011;3784;54.098;9.998;2022-07-29T12:13:46;4.27;;;2.20;;
7485;SDS011;3784;54.098;9.998;2022-07-29T12:16:14;2.67;;;1.80;;
7485;SDS011;3784;54.098;9.998;2022-07-29T12:19:00;5.33;;;1.93;;
7485;SDS011;3784;54.098;9.998;2022-07-29T12:21:33;5.50;;;1.87;;
7485;SDS011;3784;54.098;9.998;2022-07-29T12:24:21;4.30;;;2.27;;
7485;SDS011;3784;54.098;9.998;2022-07-29T12:26:55;3.07;;;1.90;;
7485;SDS011;3784;54.098;9.998;2022-07-29T12:29:23;5.00;;;1.83;;
7485;SDS011;3784;54.098;9.998;2022-07-29T12:32:00;3.53;;;2.10;;
7485;SDS011;3784;54.098;9.998;2022-07-29T12:34:28;5.03;;;2.00;;
7485;SDS011;3784;54.098;9.998;2022-07-29T12:36:55;5.73;;;1.97;;
7485;SDS011;3784;54.098;9.998;2022-07-29T12:39:22;4.17;;;1.97;;
7485;SDS011;3784;54.098;9.998;2022-07-29T12:41:49;5.37;;;2.00;;
7485;SDS011;3784;54.098;9.998;2022-07-29T12:44:15;5.57;;;2.37;;
7485;SDS011;3784;54.098;9.998;2022-07-29T12:46:42;2.63;;;2.10;;
7485;SDS011;3784;54.098;9.998;2022-07-29T12:49:08;3.63;;;2.07;;
7485;SDS011;3784;54.098;9.998;2022-07-29T12:51:38;3.27;;;2.03;;
7485;SDS011;3784;54.098;9.998;2022-07-29T12:54:10;5.63;;;2.13;;
7485;SDS011;3784;54.098;9.998;2022-07-29T12:56:40;4.00;;;1.97;;
7485;SDS011;3784;54.098;9.998;2022-07-29T12:59:17;3.80;;;1.93;;
7485;SDS011;3784;54.098;9.998;2022-07-29T13:01:45;3.90;;;2.03;;
7485;SDS011;3784;54.098;9.998;2022-07-29T13:06:58;3.63;;;2.10;;
7485;SDS011;3784;54.098;9.998;2022-07-29T13:09:42;5.40;;;1.93;;
7485;SDS011;3784;54.098;9.998;2022-07-29T13:12:10;5.20;;;2.20;;
7485;SDS011;3784;54.098;9.998;2022-07-29T13:14:39;3.03;;;2.20;;
7485;SDS011;3784;54.098;9.998;2022-07-29T13:17:08;4.97;;;2.07;;
7485;SDS011;3784;54.098;9.998;2022-07-29T13:19:50;3.70;;;1.70;;
7485;SDS011;3784;54.098;9.998;2022-07-29T13:22:19;6.00;;;1.97;;
7485;SDS011;3784;54.098;9.998;2022-07-29T13:24:50;3.07;;;1.80;;
7485;SDS011;3784;54.098;9.998;2022-07-29T13:27:18;6.77;;;2.17;;
7485;SDS011;3784;54.098;9.998;2022-07-29T13:29:46;5.83;;;2.10;;
7485;SDS011;3784;54.098;9.998;2022-07-29T13:32:13;2.77;;;2.00;;
7485;SDS011;3784;54.098;9.998;2022-07-29T13:34:39;2.63;;;1.90;;
7485;SDS011;3784;54.098;9.998;2022-07-29T13:37:06;5.17;;;2.30;;
7485;SDS011;3784;54.098;9.998;2022-07-29T13:39:34;4.80;;;1.90;;
7485;SDS011;3784;54.098;9.998;2022-07-29T13:42:00;2.87;;;1.60;;
7485;SDS011;3784;54.098;9.998;2022-07-29T13:44:27;2.73;;;1.83;;
7485;SDS011;3784;54.098;9.998;2022-07-29T13:46:53;4.33;;;1.97;;
7485;SDS011;3784;54.098;9.998;2022-07-29T13:49:20;5.23;;;2.00;;
7485;SDS011;3784;54.098;9.998;2022-07-29T13:51:47;4.30;;;2.07;;
7485;SDS011;3784;54.098;9.998;2022-07-29T13:54:13;4.33;;;2.07;;
7485;SDS011;3784;54.098;9.998;2022-07-29T13:56:40;7.13;;;2.00;;
7485;SDS011;3784;54.098;9.998;2022-07-29T13:59:06;4.57;;;2.10;;
7485;SDS011;3784;54.098;9.998;2022-07-29T14:01:34;6.47;;;1.90;;
7485;SDS011;3784;54.098;9.998;2022-07-29T14:04:01;5.57;;;2.10;;
7485;SDS011;3784;54.098;9.998;2022-07-29T14:06:29;3.37;;;1.77;;
7485;SDS011;3784;54.098;9.998;2022-07-29T14:08:55;4.33;;;2.20;;
7485;SDS011;3784;54.098;9.998;2022-07-29T14:11:22;4.10;;;2.10;;
7485;SDS011;3784;54.098;9.998;2022-07-29T14:13:48;3.10;;;2.10;;
7485;SDS011;3784;54.098;9.998;2022-07-29T14:16:15;4.03;;;2.10;;
7485;SDS011;3784;54.098;9.998;2022-07-29T14:18:41;6.40;;;2.37;;
7485;SDS011;3784;54.098;9.998;2022-07-29T14:21:08;3.80;;;2.13;;
7485;SDS011;3784;54.098;9.998;2022-07-29T14:23:35;6.93;;;2.50;;
7485;SDS011;3784;54.098;9.998;2022-07-29T14:26:07;4.80;;;2.33;;
7485;SDS011;3784;54.098;9.998;2022-07-29T14:28:40;5.13;;;2.10;;
7485;SDS011;3784;54.098;9.998;2022-07-29T14:31:07;4.40;;;2.07;;
7485;SDS011;3784;54.098;9.998;2022-07-29T14:33:34;6.13;;;2.37;;
7485;SDS011;3784;54.098;9.998;2022-07-29T14:36:00;3.63;;;2.17;;
7485;SDS011;3784;54.098;9.998;2022-07-29T14:38:27;5.47;;;2.10;;
7485;SDS011;3784;54.098;9.998;2022-07-29T14:40:53;6.03;;;2.53;;
7485;SDS011;3784;54.098;9.998;2022-07-29T14:43:20;6.37;;;2.40;;
7485;SDS011;3784;54.098;9.998;2022-07-29T14:45:46;4.13;;;2.30;;
7485;SDS011;3784;54.098;9.998;2022-07-29T14:48:13;10.10;;;2.50;;
7485;SDS011;3784;54.098;9.998;2022-07-29T14:50:39;3.70;;;2.70;;
7485;SDS011;3784;54.098;9.998;2022-07-29T14:53:06;6.40;;;2.47;;
7485;SDS011;3784;54.098;9.998;2022-07-29T14:55:32;5.20;;;2.30;;
7485;SDS011;3784;54.098;9.998;2022-07-29T14:57:59;3.23;;;2.00;;
7485;SDS011;3784;54.098;9.998;2022-07-29T15:00:37;5.57;;;2.40;;
7485;SDS011;3784;54.098;9.998;2022-07-29T15:03:04;4.33;;;2.17;;
7485;SDS011;3784;54.098;9.998;2022-07-29T15:05:31;3.37;;;2.10;;
7485;SDS011;3784;54.098;9.998;2022-07-29T15:07:58;5.10;;;2.10;;
7485;SDS011;3784;54.098;9.998;2022-07-29T15:10:25;5.43;;;2.00;;
7485;SDS011;3784;54.098;9.998;2022-07-29T15:12:55;5.37;;;2.07;;
7485;SDS011;3784;54.098;9.998;2022-07-29T15:15:22;3.80;;;2.20;;
7485;SDS011;3784;54.098;9.998;2022-07-29T15:17:48;3.70;;;2.20;;
7485;SDS011;3784;54.098;9.998;2022-07-29T15:20:15;4.83;;;2.17;;
7485;SDS011;3784;54.098;9.998;2022-07-29T15:22:41;4.67;;;2.20;;
7485;SDS011;3784;54.098;9.998;2022-07-29T15:25:09;4.73;;;2.00;;
7485;SDS011;3784;54.098;9.998;2022-07-29T15:27:36;5.03;;;2.30;;
7485;SDS011;3784;54.098;9.998;2022-07-29T15:30:02;3.17;;;2.00;;
7485;SDS011;3784;54.098;9.998;2022-07-29T15:32:29;3.17;;;2.00;;
7485;SDS011;3784;54.098;9.998;2022-07-29T15:34:55;3.23;;;2.10;;
7485;SDS011;3784;54.098;9.998;2022-07-29T15:37:22;5.40;;;1.97;;
7485;SDS011;3784;54.098;9.998;2022-07-29T15:39:48;4.80;;;1.90;;
7485;SDS011;3784;54.098;9.998;2022-07-29T15:42:15;4.97;;;2.50;;
7485;SDS011;3784;54.098;9.998;2022-07-29T15:44:43;5.20;;;2.50;;
7485;SDS011;3784;54.098;9.998;2022-07-29T15:47:09;5.67;;;2.23;;
7485;SDS011;3784;54.098;9.998;2022-07-29T15:49:37;3.80;;;2.03;;
7485;SDS011;3784;54.098;9.998;2022-07-29T15:52:14;5.93;;;2.10;;
7485;SDS011;3784;54.098;9.998;2022-07-29T15:54:41;3.50;;;2.30;;
7485;SDS011;3784;54.098;9.998;2022-07-29T15:57:08;3.90;;;2.07;;
7485;SDS011;3784;54.098;9.998;2022-07-29T15:59:35;4.37;;;2.37;;
7485;SDS011;3784;54.098;9.998;2022-07-29T16:02:01;3.67;;;2.10;;
7485;SDS011;3784;54.098;9.998;2022-07-29T16:04:28;4.97;;;2.17;;
7485;SDS011;3784;54.098;9.998;2022-07-29T16:06:55;3.47;;;2.17;;
7485;SDS011;3784;54.098;9.998;2022-07-29T16:09:22;9.30;;;2.43;;
7485;SDS011;3784;54.098;9.998;2022-07-29T16:11:49;3.80;;;2.30;;
7485;SDS011;3784;54.098;9.998;2022-07-29T16:14:19;4.50;;;3.03;;
7485;SDS011;3784;54.098;9.998;2022-07-29T16:16:46;4.33;;;2.57;;
7485;SDS011;3784;54.098;9.998;2022-07-29T16:19:13;4.03;;;2.30;;